CheckWX is a tool to help pilots better visualize weather data.  It is not intended as a substitute for an official pre-flight weather briefing.

12:01:28 UTC

EGEC TAF
Campbeltown Airport
Campbeltown, United Kingdom
TAF AMD EGEC 251155Z 2512/2521 28009KT 9999 SCT025 PROB30 TEMPO 2512/2518 7000 SHRA BKN007

Mar-25@
12:00 UTC

Mar-25 @ 12:00 UTC

Mar-25@
21:00 UTC

Mar-25 @ 21:00 UTC

TAF AMD EGEC 251155Z 2512/2521 28009KT 9999 SCT025
Wind
  • 280° at 9 KTS
Cloud Levels
  • Scattered at 2,500' AGL

Mar-25@
12:00 UTC

Mar-25 @ 12:00 UTC

Mar-25@
18:00 UTC

Mar-25 @ 18:00 UTC

PROB30 TEMPO 2512/2518 7000 SHRA BKN007

Temporary - 30% Likelihood

Temporary - 30% Likelihood during this time.

Conditions
Rain
Cloud Levels
  • Broken at 700' AGL